PWSweather.com
Personal Weather Stations
Station Observations
KETX01
Ketx, PatraGR 26331

KetxPatraGR 26331

Lat: 38.238889, Lon: 21.751111

Elevation: 56

Station Type: Davis Instruments / Vantage Pro2 Plus

http://meteopatras.eu

Latest ConditionsUpdated 4:05:01 AM GMT+02:02 Sunday, Feb 24, 2019
Currently Today's Max Today's Min Today's Average
Temperature 47.0°F8.3°C 48.2°F9.0°C 45.2°F7.3°C 46.9°F8.3°C
Dew Point 31.2°F-0.4°C 31.2°F-0.4°C 27.3°F-2.6°C 28.9°F-1.7°C
Winds 5.8 mph SW9.3 kmh SW 12.7 mph -20.4 kmh - - 6.6 mph 10.6 kmh
Wind Gusts 9.2 mph14.8 kmh 23.0 mph37.0 kmh - -
Humidity 54% 54% 46% 49%
Pressure 30.06 in1017.9 mb 30.06 in1017.9 mb 30.02 in1016.6 mb -
Precipitation - 0.01 in0.3 mm - -
Hour Temp Dew Point Humidity Winds Wind Gusts Pressure Precip Precip Rate Daily Precip Total
04:05 AM 47.0°F8.3°C 31.2°F-0.4°C 54% 5.8 mph SW9.3 kmh SW 9.2 mph14.8 kmh 30.06 in1017.9 mb - 0.00 in0.0 mm 0.01 in0.3 mm
04:00 AM 47.1°F8.4°C 29.4°F-1.4°C 50% 8.1 mph W13.0 kmh W 13.8 mph22.2 kmh 30.06 in1017.9 mb - 0.00 in0.0 mm 0.01 in0.3 mm
03:55 AM 46.7°F8.2°C 29.5°F-1.4°C 51% 11.5 mph NE18.5 kmh NE 18.4 mph29.6 kmh 30.06 in1017.9 mb - 0.00 in0.0 mm 0.01 in0.3 mm
03:50 AM 46.2°F7.9°C 28.6°F-1.9°C 50% 5.8 mph ENE9.3 kmh ENE 9.2 mph14.8 kmh 30.06 in1017.9 mb - 0.00 in0.0 mm 0.01 in0.3 mm
03:45 AM 46.3°F7.9°C 29.2°F-1.6°C 51% 1.2 mph N1.9 kmh N 1.2 mph1.9 kmh 30.06 in1017.9 mb - 0.01 in0.3 mm 0.01 in0.3 mm
03:40 AM 46.9°F8.3°C 28.2°F-2.1°C 48% 3.5 mph WSW5.6 kmh WSW 10.4 mph16.7 kmh 30.05 in1017.6 mb - 0.01 in0.3 mm 0.01 in0.3 mm
03:35 AM 47.2°F8.4°C 28.5°F-1.9°C 48% 5.8 mph SW9.3 kmh SW 6.9 mph11.1 kmh 30.05 in1017.6 mb - 0.01 in0.3 mm 0.01 in0.3 mm
03:30 AM 47.6°F8.7°C 27.8°F-2.3°C 46% 6.9 mph E11.1 kmh E 11.5 mph18.5 kmh 30.06 in1017.9 mb - 0.01 in0.3 mm 0.01 in0.3 mm
03:25 AM 46.9°F8.3°C 27.7°F-2.4°C 47% 10.4 mph E16.7 kmh E 12.7 mph20.4 kmh 30.05 in1017.6 mb - 0.01 in0.3 mm 0.01 in0.3 mm
03:20 AM 45.9°F7.7°C 29.2°F-1.6°C 52% 3.5 mph SE5.6 kmh SE 3.5 mph5.6 kmh 30.05 in1017.6 mb - 0.01 in0.3 mm 0.01 in0.3 mm
03:15 AM 45.9°F7.7°C 30.2°F-1.0°C 54% 6.9 mph N11.1 kmh N 10.4 mph16.7 kmh 30.05 in1017.6 mb - 0.01 in0.3 mm 0.01 in0.3 mm
03:10 AM 46.5°F8.1°C 29.8°F-1.2°C 52% 10.4 mph W16.7 kmh W 17.3 mph27.8 kmh 30.05 in1017.6 mb - 0.01 in0.3 mm 0.01 in0.3 mm
03:05 AM 46.8°F8.2°C 29.6°F-1.3°C 51% 4.6 mph WSW7.4 kmh WSW 8.1 mph13.0 kmh 30.05 in1017.6 mb - 0.01 in0.3 mm 0.01 in0.3 mm
03:00 AM 46.9°F8.3°C 28.7°F-1.8°C 49% 6.9 mph WSW11.1 kmh WSW 6.9 mph11.1 kmh 30.04 in1017.3 mb - 0.01 in0.3 mm 0.01 in0.3 mm
02:55 AM 47.1°F8.4°C 29.9°F-1.2°C 51% 6.9 mph NNE11.1 kmh NNE 11.5 mph18.5 kmh 30.05 in1017.6 mb - 0.01 in0.3 mm 0.01 in0.3 mm
02:50 AM 47.0°F8.3°C 29.8°F-1.2°C 51% 6.9 mph ESE11.1 kmh ESE 17.3 mph27.8 kmh 30.04 in1017.3 mb - 0.01 in0.3 mm 0.01 in0.3 mm
02:45 AM 46.7°F8.2°C 30.5°F-0.8°C 53% 6.9 mph ESE11.1 kmh ESE 11.5 mph18.5 kmh 30.05 in1017.6 mb - 0.00 in0.0 mm 0.00 in0.0 mm
02:40 AM 47.1°F8.4°C 30.3°F-0.9°C 52% 12.7 mph N20.4 kmh N 23.0 mph37.0 kmh 30.03 in1016.9 mb - 0.00 in0.0 mm 0.00 in0.0 mm
02:35 AM 47.9°F8.8°C 30.1°F-1.1°C 50% 4.6 mph NW7.4 kmh NW 8.1 mph13.0 kmh 30.05 in1017.6 mb - 0.00 in0.0 mm 0.00 in0.0 mm
02:30 AM 48.0°F8.9°C 29.7°F-1.3°C 49% 6.9 mph SSW11.1 kmh SSW 9.2 mph14.8 kmh 30.04 in1017.3 mb - 0.00 in0.0 mm 0.00 in0.0 mm
02:25 AM 48.1°F8.9°C 29.3°F-1.5°C 48% 5.8 mph WNW9.3 kmh WNW 8.1 mph13.0 kmh 30.05 in1017.6 mb - 0.00 in0.0 mm 0.00 in0.0 mm
02:20 AM 48.2°F9.0°C 29.9°F-1.2°C 49% 3.5 mph SW5.6 kmh SW 11.5 mph18.5 kmh 30.04 in1017.3 mb - 0.00 in0.0 mm 0.00 in0.0 mm
02:15 AM 48.2°F9.0°C 30.0°F-1.1°C 49% 4.6 mph S7.4 kmh S 6.9 mph11.1 kmh 30.04 in1017.3 mb - 0.00 in0.0 mm 0.00 in0.0 mm
02:10 AM 47.6°F8.7°C 28.3°F-2.1°C 47% 6.9 mph ESE11.1 kmh ESE 6.9 mph11.1 kmh 30.03 in1016.9 mb - 0.00 in0.0 mm 0.00 in0.0 mm
02:05 AM 47.3°F8.5°C 28.1°F-2.2°C 47% 8.1 mph SE13.0 kmh SE 13.8 mph22.2 kmh 30.05 in1017.6 mb - 0.00 in0.0 mm 0.00 in0.0 mm
02:00 AM 47.3°F8.5°C 27.6°F-2.4°C 46% 12.7 mph ESE20.4 kmh ESE 19.6 mph31.5 kmh 30.04 in1017.3 mb - 0.00 in0.0 mm 0.00 in0.0 mm
01:55 AM 47.4°F8.6°C 28.2°F-2.1°C 47% 9.2 mph E14.8 kmh E 10.4 mph16.7 kmh 30.04 in1017.3 mb - 0.00 in0.0 mm 0.00 in0.0 mm
01:50 AM 47.4°F8.6°C 27.6°F-2.4°C 46% 4.6 mph SSW7.4 kmh SSW 5.8 mph9.3 kmh 30.04 in1017.3 mb - 0.00 in0.0 mm 0.00 in0.0 mm
01:45 AM 47.3°F8.5°C 27.5°F-2.5°C 46% 4.6 mph SE7.4 kmh SE 9.2 mph14.8 kmh 30.04 in1017.3 mb - 0.00 in0.0 mm 0.00 in0.0 mm
01:40 AM 47.5°F8.6°C 28.3°F-2.1°C 47% 4.6 mph NW7.4 kmh NW 10.4 mph16.7 kmh 30.04 in1017.3 mb - 0.00 in0.0 mm 0.00 in0.0 mm
01:35 AM 47.6°F8.7°C 27.8°F-2.3°C 46% 5.8 mph WSW9.3 kmh WSW 8.1 mph13.0 kmh 30.04 in1017.3 mb - 0.00 in0.0 mm 0.00 in0.0 mm
01:30 AM 47.1°F8.4°C 27.3°F-2.6°C 46% 4.6 mph SW7.4 kmh SW 9.2 mph14.8 kmh 30.04 in1017.3 mb - 0.00 in0.0 mm 0.00 in0.0 mm
01:25 AM 46.5°F8.1°C 27.8°F-2.3°C 48% 10.4 mph SE16.7 kmh SE 11.5 mph18.5 kmh 30.04 in1017.3 mb - 0.00 in0.0 mm 0.00 in0.0 mm
01:20 AM 47.0°F8.3°C 29.3°F-1.5°C 50% 8.1 mph W13.0 kmh W 11.5 mph18.5 kmh 30.04 in1017.3 mb - 0.00 in0.0 mm 0.00 in0.0 mm
01:15 AM 47.3°F8.5°C 28.1°F-2.2°C 47% 5.8 mph WSW9.3 kmh WSW 11.5 mph18.5 kmh 30.04 in1017.3 mb - 0.00 in0.0 mm 0.00 in0.0 mm
01:10 AM 47.2°F8.4°C 28.0°F-2.2°C 47% 5.8 mph NE9.3 kmh NE 11.5 mph18.5 kmh 30.04 in1017.3 mb - 0.00 in0.0 mm 0.00 in0.0 mm
01:05 AM 47.1°F8.4°C 27.9°F-2.3°C 47% 1.2 mph W1.9 kmh W 2.3 mph3.7 kmh 30.04 in1017.3 mb - 0.00 in0.0 mm 0.00 in0.0 mm
01:00 AM 46.8°F8.2°C 28.1°F-2.2°C 48% 6.9 mph NW11.1 kmh NW 12.7 mph20.4 kmh 30.03 in1016.9 mb - 0.00 in0.0 mm 0.00 in0.0 mm
12:55 AM 46.9°F8.3°C 28.7°F-1.8°C 49% 6.9 mph N11.1 kmh N 11.5 mph18.5 kmh 30.03 in1016.9 mb - 0.00 in0.0 mm 0.00 in0.0 mm
12:50 AM 47.1°F8.4°C 27.9°F-2.3°C 47% 8.1 mph WNW13.0 kmh WNW 11.5 mph18.5 kmh 30.04 in1017.3 mb - 0.00 in0.0 mm 0.00 in0.0 mm
12:45 AM 46.8°F8.2°C 27.6°F-2.4°C 47% 5.8 mph SSE9.3 kmh SSE 9.2 mph14.8 kmh 30.04 in1017.3 mb - 0.00 in0.0 mm 0.00 in0.0 mm
12:40 AM 46.1°F7.8°C 28.5°F-1.9°C 50% 4.6 mph N7.4 kmh N 9.2 mph14.8 kmh 30.03 in1016.9 mb - 0.00 in0.0 mm 0.00 in0.0 mm
12:35 AM 45.6°F7.6°C 29.0°F-1.7°C 52% 4.6 mph WNW7.4 kmh WNW 6.9 mph11.1 kmh 30.03 in1016.9 mb - 0.00 in0.0 mm 0.00 in0.0 mm
12:30 AM 45.6°F7.6°C 29.4°F-1.4°C 53% 4.6 mph NNW7.4 kmh NNW 8.1 mph13.0 kmh 30.02 in1016.6 mb - 0.00 in0.0 mm 0.00 in0.0 mm
12:25 AM 45.9°F7.7°C 29.7°F-1.3°C 53% 4.6 mph WSW7.4 kmh WSW 5.8 mph9.3 kmh 30.03 in1016.9 mb - 0.00 in0.0 mm 0.00 in0.0 mm
12:20 AM 45.9°F7.7°C 29.2°F-1.6°C 52% 3.5 mph S5.6 kmh S 3.5 mph5.6 kmh 30.04 in1017.3 mb - 0.00 in0.0 mm 0.00 in0.0 mm
12:15 AM 45.9°F7.7°C 29.2°F-1.6°C 52% 11.5 mph N18.5 kmh N 16.1 mph25.9 kmh 30.04 in1017.3 mb - 0.00 in0.0 mm 0.00 in0.0 mm
12:10 AM 45.6°F7.6°C 28.5°F-1.9°C 51% 12.7 mph NE20.4 kmh NE 20.7 mph33.3 kmh 30.04 in1017.3 mb - 0.00 in0.0 mm 0.00 in0.0 mm
12:05 AM 45.6°F7.6°C 29.4°F-1.4°C 53% 3.5 mph N5.6 kmh N 3.5 mph5.6 kmh 30.04 in1017.3 mb - 0.00 in0.0 mm 0.00 in0.0 mm
12:00 AM 45.2°F7.3°C 29.5°F-1.4°C 54% 9.2 mph NE14.8 kmh NE 11.5 mph18.5 kmh 30.04 in1017.3 mb - 0.00 in0.0 mm 0.00 in0.0 mm